sensor_id;sensor_type;location;lat;lon;timestamp;temperature;humidity
13707;DHT22;6925;47.816;13.072;2023-05-10T00:01:44;17.40;63.20
13707;DHT22;6925;47.816;13.072;2023-05-10T00:04:11;17.40;63.30
13707;DHT22;6925;47.816;13.072;2023-05-10T00:06:38;17.40;63.70
13707;DHT22;6925;47.816;13.072;2023-05-10T00:09:06;17.40;63.60
13707;DHT22;6925;47.816;13.072;2023-05-10T00:11:33;17.40;64.10
13707;DHT22;6925;47.816;13.072;2023-05-10T00:14:00;17.40;64.90
13707;DHT22;6925;47.816;13.072;2023-05-10T00:16:27;17.40;64.90
13707;DHT22;6925;47.816;13.072;2023-05-10T00:18:55;17.40;64.90
13707;DHT22;6925;47.816;13.072;2023-05-10T00:21:22;17.30;64.80
13707;DHT22;6925;47.816;13.072;2023-05-10T00:23:49;17.40;65.20
13707;DHT22;6925;47.816;13.072;2023-05-10T00:26:17;17.40;65.20
13707;DHT22;6925;47.816;13.072;2023-05-10T00:28:45;17.40;65.10
13707;DHT22;6925;47.816;13.072;2023-05-10T00:31:12;17.40;65.10
13707;DHT22;6925;47.816;13.072;2023-05-10T00:33:40;17.40;65.20
13707;DHT22;6925;47.816;13.072;2023-05-10T00:36:07;17.40;65.30
13707;DHT22;6925;47.816;13.072;2023-05-10T00:38:34;17.40;65.90
13707;DHT22;6925;47.816;13.072;2023-05-10T00:41:01;17.40;65.90
13707;DHT22;6925;47.816;13.072;2023-05-10T00:43:30;17.40;65.90
13707;DHT22;6925;47.816;13.072;2023-05-10T00:45:57;17.50;66.20
13707;DHT22;6925;47.816;13.072;2023-05-10T00:48:24;17.40;66.20
13707;DHT22;6925;47.816;13.072;2023-05-10T00:50:52;17.50;66.50
13707;DHT22;6925;47.816;13.072;2023-05-10T00:53:19;17.40;66.60
13707;DHT22;6925;47.816;13.072;2023-05-10T00:55:46;17.40;66.70
13707;DHT22;6925;47.816;13.072;2023-05-10T00:58:13;17.40;67.00
13707;DHT22;6925;47.816;13.072;2023-05-10T01:00:43;17.40;67.30
13707;DHT22;6925;47.816;13.072;2023-05-10T01:03:13;17.40;67.30
13707;DHT22;6925;47.816;13.072;2023-05-10T01:05:40;17.40;67.40
13707;DHT22;6925;47.816;13.072;2023-05-10T01:08:07;17.40;67.50
13707;DHT22;6925;47.816;13.072;2023-05-10T01:10:35;17.40;67.60
13707;DHT22;6925;47.816;13.072;2023-05-10T01:13:02;17.40;67.90
13707;DHT22;6925;47.816;13.072;2023-05-10T01:15:30;17.40;68.30
13707;DHT22;6925;47.816;13.072;2023-05-10T01:18:00;17.40;68.30
13707;DHT22;6925;47.816;13.072;2023-05-10T01:20:32;17.40;68.60
13707;DHT22;6925;47.816;13.072;2023-05-10T01:32:36;17.30;69.50
13707;DHT22;6925;47.816;13.072;2023-05-10T01:35:13;17.30;69.50
13707;DHT22;6925;47.816;13.072;2023-05-10T01:37:46;17.30;69.70
13707;DHT22;6925;47.816;13.072;2023-05-10T01:40:19;17.30;70.50
13707;DHT22;6925;47.816;13.072;2023-05-10T01:42:51;17.30;71.30
13707;DHT22;6925;47.816;13.072;2023-05-10T01:45:24;17.30;71.70
13707;DHT22;6925;47.816;13.072;2023-05-10T01:48:03;17.30;72.20
13707;DHT22;6925;47.816;13.072;2023-05-10T01:50:34;17.30;72.50
13707;DHT22;6925;47.816;13.072;2023-05-10T01:53:03;17.40;73.30
13707;DHT22;6925;47.816;13.072;2023-05-10T01:55:35;17.40;73.30
13707;DHT22;6925;47.816;13.072;2023-05-10T01:58:05;17.40;73.70
13707;DHT22;6925;47.816;13.072;2023-05-10T02:00:34;17.40;73.40
13707;DHT22;6925;47.816;13.072;2023-05-10T02:03:06;17.40;74.10
13707;DHT22;6925;47.816;13.072;2023-05-10T02:05:35;17.40;74.60
13707;DHT22;6925;47.816;13.072;2023-05-10T02:08:05;17.40;75.00
13707;DHT22;6925;47.816;13.072;2023-05-10T02:10:34;17.40;75.10
13707;DHT22;6925;47.816;13.072;2023-05-10T02:13:03;17.40;75.80
13707;DHT22;6925;47.816;13.072;2023-05-10T02:15:32;17.30;75.90
13707;DHT22;6925;47.816;13.072;2023-05-10T02:18:01;17.30;76.70
13707;DHT22;6925;47.816;13.072;2023-05-10T02:20:31;17.30;76.50
13707;DHT22;6925;47.816;13.072;2023-05-10T02:22:59;17.30;76.90
13707;DHT22;6925;47.816;13.072;2023-05-10T02:25:28;17.20;77.30
13707;DHT22;6925;47.816;13.072;2023-05-10T02:27:57;17.20;76.90
13707;DHT22;6925;47.816;13.072;2023-05-10T02:30:24;17.20;77.30
13707;DHT22;6925;47.816;13.072;2023-05-10T02:32:53;17.20;77.50
13707;DHT22;6925;47.816;13.072;2023-05-10T02:35:20;17.20;77.50
13707;DHT22;6925;47.816;13.072;2023-05-10T02:37:50;17.10;77.80
13707;DHT22;6925;47.816;13.072;2023-05-10T02:40:18;17.10;78.10
13707;DHT22;6925;47.816;13.072;2023-05-10T02:42:47;17.10;78.20
13707;DHT22;6925;47.816;13.072;2023-05-10T02:45:18;17.10;78.20
13707;DHT22;6925;47.816;13.072;2023-05-10T02:47:46;17.10;78.50
13707;DHT22;6925;47.816;13.072;2023-05-10T02:50:13;17.00;78.30
13707;DHT22;6925;47.816;13.072;2023-05-10T02:52:44;17.00;78.40
13707;DHT22;6925;47.816;13.072;2023-05-10T02:55:15;17.00;78.90
13707;DHT22;6925;47.816;13.072;2023-05-10T02:57:56;17.00;78.80
13707;DHT22;6925;47.816;13.072;2023-05-10T03:00:24;17.00;78.60
13707;DHT22;6925;47.816;13.072;2023-05-10T03:02:52;16.90;78.80
13707;DHT22;6925;47.816;13.072;2023-05-10T03:05:19;16.90;79.10
13707;DHT22;6925;47.816;13.072;2023-05-10T03:07:46;16.90;79.40
13707;DHT22;6925;47.816;13.072;2023-05-10T03:10:15;16.90;79.30
13707;DHT22;6925;47.816;13.072;2023-05-10T03:12:57;16.80;79.10
13707;DHT22;6925;47.816;13.072;2023-05-10T03:15:39;16.80;79.60
13707;DHT22;6925;47.816;13.072;2023-05-10T03:18:12;16.80;79.90
13707;DHT22;6925;47.816;13.072;2023-05-10T03:20:43;16.80;80.30
13707;DHT22;6925;47.816;13.072;2023-05-10T03:23:17;16.70;80.40
13707;DHT22;6925;47.816;13.072;2023-05-10T03:25:48;16.70;80.70
13707;DHT22;6925;47.816;13.072;2023-05-10T03:28:18;16.70;80.50
13707;DHT22;6925;47.816;13.072;2023-05-10T03:30:46;16.70;80.60
13707;DHT22;6925;47.816;13.072;2023-05-10T03:33:13;16.60;80.60
13707;DHT22;6925;47.816;13.072;2023-05-10T03:35:41;16.60;80.90
13707;DHT22;6925;47.816;13.072;2023-05-10T03:38:09;16.60;81.20
13707;DHT22;6925;47.816;13.072;2023-05-10T03:40:36;16.60;81.30
13707;DHT22;6925;47.816;13.072;2023-05-10T03:43:05;16.60;81.60
13707;DHT22;6925;47.816;13.072;2023-05-10T03:45:32;16.60;81.30
13707;DHT22;6925;47.816;13.072;2023-05-10T03:47:59;16.60;81.20
13707;DHT22;6925;47.816;13.072;2023-05-10T03:50:26;16.50;81.10
13707;DHT22;6925;47.816;13.072;2023-05-10T03:52:53;16.50;82.00
13707;DHT22;6925;47.816;13.072;2023-05-10T03:55:20;16.40;81.90
13707;DHT22;6925;47.816;13.072;2023-05-10T03:57:48;16.40;82.20
13707;DHT22;6925;47.816;13.072;2023-05-10T04:00:16;16.40;82.60
13707;DHT22;6925;47.816;13.072;2023-05-10T04:02:43;16.40;82.10
13707;DHT22;6925;47.816;13.072;2023-05-10T04:05:11;16.40;82.30
13707;DHT22;6925;47.816;13.072;2023-05-10T04:07:38;16.40;82.50
13707;DHT22;6925;47.816;13.072;2023-05-10T04:10:06;16.40;82.80
13707;DHT22;6925;47.816;13.072;2023-05-10T04:12:33;16.40;82.90
13707;DHT22;6925;47.816;13.072;2023-05-10T04:15:00;16.40;82.90
13707;DHT22;6925;47.816;13.072;2023-05-10T04:17:29;16.30;82.80
13707;DHT22;6925;47.816;13.072;2023-05-10T04:19:56;16.30;83.00
13707;DHT22;6925;47.816;13.072;2023-05-10T04:22:23;16.30;83.20
13707;DHT22;6925;47.816;13.072;2023-05-10T04:24:51;16.30;83.50
13707;DHT22;6925;47.816;13.072;2023-05-10T04:27:18;16.30;83.60
13707;DHT22;6925;47.816;13.072;2023-05-10T04:29:45;16.30;83.80
13707;DHT22;6925;47.816;13.072;2023-05-10T04:32:12;16.30;83.80
13707;DHT22;6925;47.816;13.072;2023-05-10T04:34:43;16.30;84.10
13707;DHT22;6925;47.816;13.072;2023-05-10T04:37:10;16.40;84.00
13707;DHT22;6925;47.816;13.072;2023-05-10T04:39:37;16.30;83.80
13707;DHT22;6925;47.816;13.072;2023-05-10T04:42:05;16.30;83.30
13707;DHT22;6925;47.816;13.072;2023-05-10T04:44:32;16.30;83.70
13707;DHT22;6925;47.816;13.072;2023-05-10T04:47:00;16.30;83.40
13707;DHT22;6925;47.816;13.072;2023-05-10T04:49:28;16.20;84.10
13707;DHT22;6925;47.816;13.072;2023-05-10T04:51:56;16.10;84.20
13707;DHT22;6925;47.816;13.072;2023-05-10T04:54:23;16.20;84.50
13707;DHT22;6925;47.816;13.072;2023-05-10T04:56:51;16.10;84.60
13707;DHT22;6925;47.816;13.072;2023-05-10T04:59:19;16.10;84.40
13707;DHT22;6925;47.816;13.072;2023-05-10T05:01:46;16.10;84.50
13707;DHT22;6925;47.816;13.072;2023-05-10T05:04:13;16.10;84.40
13707;DHT22;6925;47.816;13.072;2023-05-10T05:06:40;16.00;84.70
13707;DHT22;6925;47.816;13.072;2023-05-10T05:09:08;16.10;85.00
13707;DHT22;6925;47.816;13.072;2023-05-10T05:11:35;16.00;85.00
13707;DHT22;6925;47.816;13.072;2023-05-10T05:14:03;16.00;84.50
13707;DHT22;6925;47.816;13.072;2023-05-10T05:16:30;16.00;84.70
13707;DHT22;6925;47.816;13.072;2023-05-10T05:18:58;16.00;84.80
13707;DHT22;6925;47.816;13.072;2023-05-10T05:21:25;16.00;86.00
13707;DHT22;6925;47.816;13.072;2023-05-10T05:23:52;16.10;85.50
13707;DHT22;6925;47.816;13.072;2023-05-10T05:26:21;16.00;85.60
13707;DHT22;6925;47.816;13.072;2023-05-10T05:28:48;16.00;86.10
13707;DHT22;6925;47.816;13.072;2023-05-10T05:31:18;16.00;86.80
13707;DHT22;6925;47.816;13.072;2023-05-10T05:33:45;16.10;86.70
13707;DHT22;6925;47.816;13.072;2023-05-10T05:36:13;16.10;86.90
13707;DHT22;6925;47.816;13.072;2023-05-10T05:38:39;16.10;87.10
13707;DHT22;6925;47.816;13.072;2023-05-10T05:41:06;16.20;87.30
13707;DHT22;6925;47.816;13.072;2023-05-10T05:43:35;16.10;87.30
13707;DHT22;6925;47.816;13.072;2023-05-10T05:46:02;16.10;88.10
13707;DHT22;6925;47.816;13.072;2023-05-10T05:48:29;16.20;87.60
13707;DHT22;6925;47.816;13.072;2023-05-10T05:50:57;16.10;87.30
13707;DHT22;6925;47.816;13.072;2023-05-10T05:53:24;16.10;87.30
13707;DHT22;6925;47.816;13.072;2023-05-10T05:55:52;16.10;87.70
13707;DHT22;6925;47.816;13.072;2023-05-10T05:58:20;16.10;87.70
13707;DHT22;6925;47.816;13.072;2023-05-10T06:00:49;16.10;87.90
13707;DHT22;6925;47.816;13.072;2023-05-10T06:03:17;16.10;87.90
13707;DHT22;6925;47.816;13.072;2023-05-10T06:05:44;16.20;88.80
13707;DHT22;6925;47.816;13.072;2023-05-10T06:08:11;16.20;89.10
13707;DHT22;6925;47.816;13.072;2023-05-10T06:10:38;16.30;88.20
13707;DHT22;6925;47.816;13.072;2023-05-10T06:13:05;16.30;88.30
13707;DHT22;6925;47.816;13.072;2023-05-10T06:15:33;16.30;87.90
13707;DHT22;6925;47.816;13.072;2023-05-10T06:18:01;16.20;87.70
13707;DHT22;6925;47.816;13.072;2023-05-10T06:20:28;16.10;88.30
13707;DHT22;6925;47.816;13.072;2023-05-10T06:22:57;16.00;88.70
13707;DHT22;6925;47.816;13.072;2023-05-10T06:25:24;16.10;88.70
13707;DHT22;6925;47.816;13.072;2023-05-10T06:27:51;16.10;89.00
13707;DHT22;6925;47.816;13.072;2023-05-10T06:30:23;16.10;90.10
13707;DHT22;6925;47.816;13.072;2023-05-10T06:32:53;16.20;90.10
13707;DHT22;6925;47.816;13.072;2023-05-10T06:35:21;16.20;89.60
13707;DHT22;6925;47.816;13.072;2023-05-10T06:37:49;16.20;89.10
13707;DHT22;6925;47.816;13.072;2023-05-10T06:40:16;16.20;90.00
13707;DHT22;6925;47.816;13.072;2023-05-10T06:42:43;16.20;88.50
13707;DHT22;6925;47.816;13.072;2023-05-10T06:45:11;16.10;88.60
13707;DHT22;6925;47.816;13.072;2023-05-10T06:47:40;16.00;87.90
13707;DHT22;6925;47.816;13.072;2023-05-10T06:50:07;16.00;87.70
13707;DHT22;6925;47.816;13.072;2023-05-10T06:52:36;15.90;88.20
13707;DHT22;6925;47.816;13.072;2023-05-10T06:55:04;15.90;88.20
13707;DHT22;6925;47.816;13.072;2023-05-10T06:57:32;15.90;88.80
13707;DHT22;6925;47.816;13.072;2023-05-10T06:59:59;15.80;88.40
13707;DHT22;6925;47.816;13.072;2023-05-10T07:02:26;15.80;88.30
13707;DHT22;6925;47.816;13.072;2023-05-10T07:04:53;15.70;87.20
13707;DHT22;6925;47.816;13.072;2023-05-10T07:07:21;15.60;87.90
13707;DHT22;6925;47.816;13.072;2023-05-10T07:09:49;15.60;87.90
13707;DHT22;6925;47.816;13.072;2023-05-10T07:12:16;15.60;88.40
13707;DHT22;6925;47.816;13.072;2023-05-10T07:14:43;15.70;89.10
13707;DHT22;6925;47.816;13.072;2023-05-10T07:17:10;15.70;87.50
13707;DHT22;6925;47.816;13.072;2023-05-10T07:19:38;15.70;86.90
13707;DHT22;6925;47.816;13.072;2023-05-10T07:22:05;15.70;87.80
13707;DHT22;6925;47.816;13.072;2023-05-10T07:24:32;15.70;86.90
13707;DHT22;6925;47.816;13.072;2023-05-10T07:27:01;15.70;87.60
13707;DHT22;6925;47.816;13.072;2023-05-10T07:29:28;15.70;87.60
13707;DHT22;6925;47.816;13.072;2023-05-10T07:31:55;15.70;87.00
13707;DHT22;6925;47.816;13.072;2023-05-10T07:34:22;15.70;87.80
13707;DHT22;6925;47.816;13.072;2023-05-10T07:36:49;15.70;88.70
13707;DHT22;6925;47.816;13.072;2023-05-10T07:39:17;15.70;86.50
13707;DHT22;6925;47.816;13.072;2023-05-10T07:41:44;15.60;88.60
13707;DHT22;6925;47.816;13.072;2023-05-10T07:44:12;15.60;87.80
13707;DHT22;6925;47.816;13.072;2023-05-10T07:46:39;15.60;87.40
13707;DHT22;6925;47.816;13.072;2023-05-10T07:49:06;15.50;87.80
13707;DHT22;6925;47.816;13.072;2023-05-10T07:51:33;15.50;87.90
13707;DHT22;6925;47.816;13.072;2023-05-10T07:54:00;15.50;88.30
13707;DHT22;6925;47.816;13.072;2023-05-10T07:56:29;15.50;88.70
13707;DHT22;6925;47.816;13.072;2023-05-10T07:58:57;15.50;88.20
13707;DHT22;6925;47.816;13.072;2023-05-10T08:01:26;15.50;88.50
13707;DHT22;6925;47.816;13.072;2023-05-10T08:03:53;15.50;88.70
13707;DHT22;6925;47.816;13.072;2023-05-10T08:06:20;15.50;88.30
13707;DHT22;6925;47.816;13.072;2023-05-10T08:08:48;15.50;89.40
13707;DHT22;6925;47.816;13.072;2023-05-10T08:11:16;15.60;89.00
13707;DHT22;6925;47.816;13.072;2023-05-10T08:13:43;15.60;88.60
13707;DHT22;6925;47.816;13.072;2023-05-10T08:16:10;15.50;88.40
13707;DHT22;6925;47.816;13.072;2023-05-10T08:18:39;15.50;88.30
13707;DHT22;6925;47.816;13.072;2023-05-10T08:21:06;15.50;88.10
13707;DHT22;6925;47.816;13.072;2023-05-10T08:23:33;15.40;89.40
13707;DHT22;6925;47.816;13.072;2023-05-10T08:26:00;15.40;88.80
13707;DHT22;6925;47.816;13.072;2023-05-10T08:28:27;15.40;88.90
13707;DHT22;6925;47.816;13.072;2023-05-10T08:30:54;15.50;88.90
13707;DHT22;6925;47.816;13.072;2023-05-10T08:33:21;15.50;89.30
13707;DHT22;6925;47.816;13.072;2023-05-10T08:35:50;15.50;88.50
13707;DHT22;6925;47.816;13.072;2023-05-10T08:38:18;15.50;88.60
13707;DHT22;6925;47.816;13.072;2023-05-10T08:40:46;15.40;89.00
13707;DHT22;6925;47.816;13.072;2023-05-10T08:43:16;15.40;89.10
13707;DHT22;6925;47.816;13.072;2023-05-10T08:45:43;15.40;89.90
13707;DHT22;6925;47.816;13.072;2023-05-10T08:48:13;15.40;89.40
13707;DHT22;6925;47.816;13.072;2023-05-10T08:50:42;15.40;88.80
13707;DHT22;6925;47.816;13.072;2023-05-10T08:53:12;15.20;88.10
13707;DHT22;6925;47.816;13.072;2023-05-10T08:55:40;15.10;88.20
13707;DHT22;6925;47.816;13.072;2023-05-10T08:58:09;15.10;89.50
13707;DHT22;6925;47.816;13.072;2023-05-10T09:00:36;15.20;88.70
13707;DHT22;6925;47.816;13.072;2023-05-10T09:03:04;15.20;88.60
13707;DHT22;6925;47.816;13.072;2023-05-10T09:05:32;15.20;89.70
13707;DHT22;6925;47.816;13.072;2023-05-10T09:08:00;15.30;89.00
13707;DHT22;6925;47.816;13.072;2023-05-10T09:10:30;15.30;89.90
13707;DHT22;6925;47.816;13.072;2023-05-10T09:12:57;15.50;90.70
13707;DHT22;6925;47.816;13.072;2023-05-10T09:15:24;15.60;89.80
13707;DHT22;6925;47.816;13.072;2023-05-10T09:17:51;15.60;89.70
13707;DHT22;6925;47.816;13.072;2023-05-10T09:20:18;15.50;88.90
13707;DHT22;6925;47.816;13.072;2023-05-10T09:22:46;15.50;89.10
13707;DHT22;6925;47.816;13.072;2023-05-10T09:25:13;15.50;89.20
13707;DHT22;6925;47.816;13.072;2023-05-10T09:27:44;15.50;89.50
13707;DHT22;6925;47.816;13.072;2023-05-10T09:30:16;15.50;89.20
13707;DHT22;6925;47.816;13.072;2023-05-10T09:32:44;15.60;89.90
13707;DHT22;6925;47.816;13.072;2023-05-10T09:35:13;15.60;90.00
13707;DHT22;6925;47.816;13.072;2023-05-10T09:37:41;15.70;88.60
13707;DHT22;6925;47.816;13.072;2023-05-10T09:40:13;15.70;90.10
13707;DHT22;6925;47.816;13.072;2023-05-10T09:42:51;15.80;89.80
13707;DHT22;6925;47.816;13.072;2023-05-10T09:45:19;15.80;88.10
13707;DHT22;6925;47.816;13.072;2023-05-10T09:47:45;15.70;88.30
13707;DHT22;6925;47.816;13.072;2023-05-10T09:50:13;15.80;90.30
13707;DHT22;6925;47.816;13.072;2023-05-10T09:52:48;16.00;90.40
13707;DHT22;6925;47.816;13.072;2023-05-10T09:55:16;16.10;90.10
13707;DHT22;6925;47.816;13.072;2023-05-10T09:57:45;16.20;89.50
13707;DHT22;6925;47.816;13.072;2023-05-10T10:00:17;16.30;89.60
13707;DHT22;6925;47.816;13.072;2023-05-10T10:02:46;16.40;88.40
13707;DHT22;6925;47.816;13.072;2023-05-10T10:05:14;16.40;87.50
13707;DHT22;6925;47.816;13.072;2023-05-10T10:07:42;16.30;87.50
13707;DHT22;6925;47.816;13.072;2023-05-10T10:10:10;16.40;88.10
13707;DHT22;6925;47.816;13.072;2023-05-10T10:12:41;16.40;87.80
13707;DHT22;6925;47.816;13.072;2023-05-10T10:15:10;16.40;85.90
13707;DHT22;6925;47.816;13.072;2023-05-10T10:17:37;16.30;86.40
13707;DHT22;6925;47.816;13.072;2023-05-10T10:20:07;16.30;86.00
13707;DHT22;6925;47.816;13.072;2023-05-10T10:22:34;16.30;86.20
13707;DHT22;6925;47.816;13.072;2023-05-10T10:25:01;16.40;88.20
13707;DHT22;6925;47.816;13.072;2023-05-10T10:27:45;16.50;87.70
13707;DHT22;6925;47.816;13.072;2023-05-10T10:30:21;16.70;88.70
13707;DHT22;6925;47.816;13.072;2023-05-10T10:33:25;16.80;88.40
13707;DHT22;6925;47.816;13.072;2023-05-10T10:35:57;16.70;86.90
13707;DHT22;6925;47.816;13.072;2023-05-10T10:38:25;16.60;87.20
13707;DHT22;6925;47.816;13.072;2023-05-10T10:41:02;16.60;87.40
13707;DHT22;6925;47.816;13.072;2023-05-10T10:43:29;16.60;87.80
13707;DHT22;6925;47.816;13.072;2023-05-10T10:46:13;16.70;87.40
13707;DHT22;6925;47.816;13.072;2023-05-10T10:48:47;16.80;87.90
13707;DHT22;6925;47.816;13.072;2023-05-10T10:51:15;16.80;87.20
13707;DHT22;6925;47.816;13.072;2023-05-10T10:53:43;16.80;87.60
13707;DHT22;6925;47.816;13.072;2023-05-10T10:56:11;16.90;87.90
13707;DHT22;6925;47.816;13.072;2023-05-10T10:58:39;17.00;87.80
13707;DHT22;6925;47.816;13.072;2023-05-10T11:01:15;17.10;87.30
13707;DHT22;6925;47.816;13.072;2023-05-10T11:06:37;17.10;86.20
13707;DHT22;6925;47.816;13.072;2023-05-10T11:09:06;17.20;87.20
13707;DHT22;6925;47.816;13.072;2023-05-10T11:11:34;17.30;86.20
13707;DHT22;6925;47.816;13.072;2023-05-10T11:14:04;17.30;85.30
13707;DHT22;6925;47.816;13.072;2023-05-10T11:16:42;17.20;85.50
13707;DHT22;6925;47.816;13.072;2023-05-10T11:19:11;17.20;85.30
13707;DHT22;6925;47.816;13.072;2023-05-10T11:21:45;17.30;86.30
13707;DHT22;6925;47.816;13.072;2023-05-10T11:24:15;17.40;86.90
13707;DHT22;6925;47.816;13.072;2023-05-10T11:26:42;17.50;87.50
13707;DHT22;6925;47.816;13.072;2023-05-10T11:29:09;17.60;87.40
13707;DHT22;6925;47.816;13.072;2023-05-10T11:31:42;17.70;88.50
13707;DHT22;6925;47.816;13.072;2023-05-10T11:34:10;17.90;87.70
13707;DHT22;6925;47.816;13.072;2023-05-10T11:36:41;18.00;85.60
13707;DHT22;6925;47.816;13.072;2023-05-10T11:39:08;18.10;85.20
13707;DHT22;6925;47.816;13.072;2023-05-10T11:41:37;18.20;83.30
13707;DHT22;6925;47.816;13.072;2023-05-10T11:44:04;18.00;82.50
13707;DHT22;6925;47.816;13.072;2023-05-10T11:46:31;18.10;84.20
13707;DHT22;6925;47.816;13.072;2023-05-10T11:49:01;18.10;84.10
13707;DHT22;6925;47.816;13.072;2023-05-10T11:51:32;18.20;83.70
13707;DHT22;6925;47.816;13.072;2023-05-10T11:53:59;18.10;82.20
13707;DHT22;6925;47.816;13.072;2023-05-10T11:56:26;18.10;83.10
13707;DHT22;6925;47.816;13.072;2023-05-10T11:58:55;18.20;84.20
13707;DHT22;6925;47.816;13.072;2023-05-10T12:01:23;18.20;83.30
13707;DHT22;6925;47.816;13.072;2023-05-10T12:03:51;18.20;83.30
13707;DHT22;6925;47.816;13.072;2023-05-10T12:06:20;18.20;82.90
13707;DHT22;6925;47.816;13.072;2023-05-10T12:08:48;18.30;83.60
13707;DHT22;6925;47.816;13.072;2023-05-10T12:11:18;18.30;83.00
13707;DHT22;6925;47.816;13.072;2023-05-10T12:13:47;18.20;82.50
13707;DHT22;6925;47.816;13.072;2023-05-10T12:16:16;18.20;82.60
13707;DHT22;6925;47.816;13.072;2023-05-10T12:18:44;18.20;82.60
13707;DHT22;6925;47.816;13.072;2023-05-10T12:21:11;18.20;83.10
13707;DHT22;6925;47.816;13.072;2023-05-10T12:23:40;18.20;82.90
13707;DHT22;6925;47.816;13.072;2023-05-10T12:26:09;18.20;83.00
13707;DHT22;6925;47.816;13.072;2023-05-10T12:28:37;18.20;83.10
13707;DHT22;6925;47.816;13.072;2023-05-10T12:31:06;18.20;82.40
13707;DHT22;6925;47.816;13.072;2023-05-10T12:33:37;18.10;81.10
13707;DHT22;6925;47.816;13.072;2023-05-10T12:36:07;18.10;81.20
13707;DHT22;6925;47.816;13.072;2023-05-10T12:38:36;18.10;82.80
13707;DHT22;6925;47.816;13.072;2023-05-10T12:41:06;18.20;81.60
13707;DHT22;6925;47.816;13.072;2023-05-10T12:43:34;18.20;81.30
13707;DHT22;6925;47.816;13.072;2023-05-10T12:46:06;18.30;81.10
13707;DHT22;6925;47.816;13.072;2023-05-10T12:48:34;18.20;80.30
13707;DHT22;6925;47.816;13.072;2023-05-10T12:51:01;18.20;79.50
13707;DHT22;6925;47.816;13.072;2023-05-10T12:53:29;18.00;78.10
13707;DHT22;6925;47.816;13.072;2023-05-10T12:55:56;17.90;79.00
13707;DHT22;6925;47.816;13.072;2023-05-10T12:58:25;18.00;79.60
13707;DHT22;6925;47.816;13.072;2023-05-10T13:00:52;18.00;78.70
13707;DHT22;6925;47.816;13.072;2023-05-10T13:03:19;18.00;79.80
13707;DHT22;6925;47.816;13.072;2023-05-10T13:05:46;18.00;78.50
13707;DHT22;6925;47.816;13.072;2023-05-10T13:08:13;18.00;78.30
13707;DHT22;6925;47.816;13.072;2023-05-10T13:10:40;18.00;78.90
13707;DHT22;6925;47.816;13.072;2023-05-10T13:13:07;18.00;76.00
13707;DHT22;6925;47.816;13.072;2023-05-10T13:15:36;17.90;78.50
13707;DHT22;6925;47.816;13.072;2023-05-10T13:18:03;18.00;80.20
13707;DHT22;6925;47.816;13.072;2023-05-10T13:20:30;18.10;78.60
13707;DHT22;6925;47.816;13.072;2023-05-10T13:22:57;18.20;79.40
13707;DHT22;6925;47.816;13.072;2023-05-10T13:25:24;18.20;79.30
13707;DHT22;6925;47.816;13.072;2023-05-10T13:27:51;18.20;78.20
13707;DHT22;6925;47.816;13.072;2023-05-10T13:30:18;18.20;77.00
13707;DHT22;6925;47.816;13.072;2023-05-10T13:32:47;18.20;77.50
13707;DHT22;6925;47.816;13.072;2023-05-10T13:35:14;18.20;77.10
13707;DHT22;6925;47.816;13.072;2023-05-10T13:37:42;18.20;78.20
13707;DHT22;6925;47.816;13.072;2023-05-10T13:40:09;18.20;79.00
13707;DHT22;6925;47.816;13.072;2023-05-10T13:42:36;18.40;79.40
13707;DHT22;6925;47.816;13.072;2023-05-10T13:45:05;18.50;78.70
13707;DHT22;6925;47.816;13.072;2023-05-10T13:47:32;18.50;79.10
13707;DHT22;6925;47.816;13.072;2023-05-10T13:50:01;18.50;78.50
13707;DHT22;6925;47.816;13.072;2023-05-10T13:52:28;18.50;78.40
13707;DHT22;6925;47.816;13.072;2023-05-10T13:54:56;18.40;76.90
13707;DHT22;6925;47.816;13.072;2023-05-10T13:57:23;18.50;77.40
13707;DHT22;6925;47.816;13.072;2023-05-10T13:59:51;18.40;76.90
13707;DHT22;6925;47.816;13.072;2023-05-10T14:02:18;18.30;76.90
13707;DHT22;6925;47.816;13.072;2023-05-10T14:04:45;18.30;77.70
13707;DHT22;6925;47.816;13.072;2023-05-10T14:07:14;18.40;79.40
13707;DHT22;6925;47.816;13.072;2023-05-10T14:09:41;18.40;80.60
13707;DHT22;6925;47.816;13.072;2023-05-10T14:12:08;18.50;80.80
13707;DHT22;6925;47.816;13.072;2023-05-10T14:14:35;18.50;81.20
13707;DHT22;6925;47.816;13.072;2023-05-10T14:17:02;18.50;79.50
13707;DHT22;6925;47.816;13.072;2023-05-10T14:19:29;18.40;78.60
13707;DHT22;6925;47.816;13.072;2023-05-10T14:21:58;18.10;76.40
13707;DHT22;6925;47.816;13.072;2023-05-10T14:24:27;17.70;76.20
13707;DHT22;6925;47.816;13.072;2023-05-10T14:26:54;17.50;77.60
13707;DHT22;6925;47.816;13.072;2023-05-10T14:29:21;17.40;78.70
13707;DHT22;6925;47.816;13.072;2023-05-10T14:31:49;17.40;78.80
13707;DHT22;6925;47.816;13.072;2023-05-10T14:34:17;17.30;79.00
13707;DHT22;6925;47.816;13.072;2023-05-10T14:36:45;17.30;79.10
13707;DHT22;6925;47.816;13.072;2023-05-10T14:39:15;17.30;79.60
13707;DHT22;6925;47.816;13.072;2023-05-10T14:41:46;17.30;80.00
13707;DHT22;6925;47.816;13.072;2023-05-10T14:44:18;17.30;81.00
13707;DHT22;6925;47.816;13.072;2023-05-10T14:46:46;17.20;79.10
13707;DHT22;6925;47.816;13.072;2023-05-10T14:49:16;17.20;79.80
13707;DHT22;6925;47.816;13.072;2023-05-10T14:51:45;17.20;80.00
13707;DHT22;6925;47.816;13.072;2023-05-10T14:54:16;17.10;79.40
13707;DHT22;6925;47.816;13.072;2023-05-10T14:56:45;17.00;79.00
13707;DHT22;6925;47.816;13.072;2023-05-10T14:59:15;17.00;80.10
13707;DHT22;6925;47.816;13.072;2023-05-10T15:01:42;16.90;80.70
13707;DHT22;6925;47.816;13.072;2023-05-10T15:04:09;16.90;80.50
13707;DHT22;6925;47.816;13.072;2023-05-10T15:06:38;16.90;80.60
13707;DHT22;6925;47.816;13.072;2023-05-10T15:09:06;16.80;80.40
13707;DHT22;6925;47.816;13.072;2023-05-10T15:11:34;16.80;81.20
13707;DHT22;6925;47.816;13.072;2023-05-10T15:14:02;16.80;82.10
13707;DHT22;6925;47.816;13.072;2023-05-10T15:16:30;16.80;82.20
13707;DHT22;6925;47.816;13.072;2023-05-10T15:18:57;16.80;81.60
13707;DHT22;6925;47.816;13.072;2023-05-10T15:21:24;16.70;81.90
13707;DHT22;6925;47.816;13.072;2023-05-10T15:23:51;16.70;82.00
13707;DHT22;6925;47.816;13.072;2023-05-10T15:26:18;16.70;83.20
13707;DHT22;6925;47.816;13.072;2023-05-10T15:28:45;16.80;83.70
13707;DHT22;6925;47.816;13.072;2023-05-10T15:31:14;16.80;83.50
13707;DHT22;6925;47.816;13.072;2023-05-10T15:33:41;16.80;83.80
13707;DHT22;6925;47.816;13.072;2023-05-10T15:36:08;16.80;82.90
13707;DHT22;6925;47.816;13.072;2023-05-10T15:38:35;16.80;83.20
13707;DHT22;6925;47.816;13.072;2023-05-10T15:41:02;16.80;84.00
13707;DHT22;6925;47.816;13.072;2023-05-10T15:43:30;16.80;84.30
13707;DHT22;6925;47.816;13.072;2023-05-10T15:45:57;16.80;84.10
13707;DHT22;6925;47.816;13.072;2023-05-10T15:48:25;16.80;84.10
13707;DHT22;6925;47.816;13.072;2023-05-10T15:50:53;16.80;85.30